Time;durP1;ratioP1;P1;durP2;ratioP2;P2;SDS_P1;SDS_P2;PMS_P1;PMS_P2;Temp;Humidity;BMP_temperature;BMP_pressure;BME280_temperature;BME280_humidity;BME280_pressure;Samples;Min_cycle;Max_cycle;Signal;HPM_P1;HPM_P2
2023/04/30 00:02:17;;;;;;;4.95;3.42;;;;;14.00;102201.00;;;;5050267;28;20708;-76
2023/04/30 00:04:44;;;;;;;7.10;3.65;;;;;14.00;102202.00;;;;5049874;28;20196;-76
2023/04/30 00:07:11;;;;;;;6.53;3.65;;;;;14.00;102209.00;;;;5056603;28;20497;-76
2023/04/30 00:09:39;;;;;;;7.10;4.57;;;;;14.00;102200.00;;;;5055384;28;20225;-76
2023/04/30 00:12:06;;;;;;;7.22;3.92;;;;;14.00;102199.00;;;;5062518;28;20241;-76
2023/04/30 00:14:34;;;;;;;6.40;4.80;;;;;14.00;102203.00;;;;5068195;28;20203;-76
2023/04/30 00:17:02;;;;;;;5.75;4.43;;;;;14.00;102200.00;;;;5049283;28;20203;-76
2023/04/30 00:19:30;;;;;;;6.70;4.65;;;;;14.00;102195.00;;;;5050715;28;20719;-76
2023/04/30 00:21:57;;;;;;;7.95;4.68;;;;;14.00;102195.00;;;;5063011;28;20259;-76
2023/04/30 00:24:24;;;;;;;7.95;5.07;;;;;14.00;102189.00;;;;5067346;28;20567;-76
2023/04/30 00:26:51;;;;;;;6.70;4.50;;;;;14.00;102191.00;;;;5062085;28;20689;-76
2023/04/30 00:29:19;;;;;;;9.13;4.93;;;;;13.90;102184.00;;;;5052742;28;20203;-76
2023/04/30 00:31:46;;;;;;;6.00;5.03;;;;;13.90;102188.00;;;;5063486;28;20294;-76
2023/04/30 00:34:14;;;;;;;6.63;4.72;;;;;13.90;102183.00;;;;5059486;28;20215;-77
2023/04/30 00:36:42;;;;;;;9.48;4.70;;;;;13.90;102187.00;;;;5052931;28;20191;-76
2023/04/30 00:39:09;;;;;;;6.90;5.45;;;;;13.90;102191.00;;;;5061323;28;20199;-76
2023/04/30 00:41:37;;;;;;;6.72;4.93;;;;;13.90;102200.00;;;;5057509;28;20255;-76
2023/04/30 00:44:05;;;;;;;6.32;5.30;;;;;13.90;102192.00;;;;5068168;28;20191;-76
2023/04/30 00:46:32;;;;;;;9.30;5.60;;;;;13.90;102202.00;;;;5053054;28;20727;-76
2023/04/30 00:49:03;;;;;;;7.20;4.93;;;;;13.90;102207.00;;;;5060501;28;20564;-76
2023/04/30 00:51:33;;;;;;;6.30;4.70;;;;;13.90;102208.00;;;;5055875;28;20280;-76
2023/04/30 00:54:02;;;;;;;6.80;4.95;;;;;13.80;102211.00;;;;5053026;28;20212;-76
2023/04/30 00:56:30;;;;;;;6.47;4.88;;;;;13.80;102205.00;;;;5067598;28;20203;-76
2023/04/30 00:58:57;;;;;;;5.60;4.43;;;;;13.80;102205.00;;;;5062360;28;20203;-76
2023/04/30 01:01:27;;;;;;;5.32;4.18;;;;;13.80;102212.00;;;;5049229;28;20712;-77
2023/04/30 01:03:54;;;;;;;8.68;4.60;;;;;13.80;102207.00;;;;5065649;28;20290;-76
2023/04/30 01:06:22;;;;;;;5.72;4.10;;;;;13.80;102214.00;;;;5052114;28;20306;-76
2023/04/30 01:08:51;;;;;;;6.07;4.57;;;;;13.80;102209.00;;;;5049443;28;20202;-76
2023/04/30 01:11:26;;;;;;;7.35;4.82;;;;;13.70;102211.00;;;;5049356;28;20274;-76
2023/04/30 01:13:59;;;;;;;5.72;4.78;;;;;13.70;102204.00;;;;5048676;28;20200;-76
2023/04/30 01:16:29;;;;;;;7.07;5.05;;;;;13.70;102206.00;;;;5065201;28;20195;-76
2023/04/30 01:19:00;;;;;;;5.75;4.72;;;;;13.70;102201.00;;;;5059127;28;20203;-76
2023/04/30 01:21:32;;;;;;;7.55;5.07;;;;;13.70;102209.00;;;;5063485;28;20233;-76
2023/04/30 01:24:24;;;;;;;6.57;4.88;;;;;13.50;102202.00;;;;5066527;28;20674;-76
2023/04/30 01:27:06;;;;;;;7.57;4.70;;;;;13.60;102206.00;;;;5047640;28;20241;-76
2023/04/30 01:29:36;;;;;;;5.68;4.70;;;;;13.60;102200.00;;;;5056503;28;20195;-76
2023/04/30 01:32:03;;;;;;;6.30;4.93;;;;;13.60;102209.00;;;;5066178;28;20198;-76
2023/04/30 01:34:30;;;;;;;8.13;5.25;;;;;13.60;102203.00;;;;5067575;28;20199;-76
2023/04/30 01:37:14;;;;;;;7.35;4.63;;;;;13.50;102210.00;;;;5067622;28;20210;-76
2023/04/30 01:39:57;;;;;;;6.80;4.60;;;;;13.40;102211.00;;;;5049271;28;20294;-76
2023/04/30 01:42:30;;;;;;;6.90;5.10;;;;;13.40;102212.00;;;;5054671;28;20226;-76
2023/04/30 01:45:21;;;;;;;6.55;5.07;;;;;13.40;102216.00;;;;5054793;28;20253;-76
2023/04/30 01:47:54;;;;;;;5.68;4.35;;;;;13.40;102212.00;;;;5048607;28;20202;-75
2023/04/30 01:50:29;;;;;;;8.60;4.80;;;;;13.40;102209.00;;;;5050195;28;20203;-76
2023/04/30 01:53:00;;;;;;;7.93;4.97;;;;;13.40;102212.00;;;;5049977;28;20203;-76
2023/04/30 01:55:33;;;;;;;7.43;5.28;;;;;13.30;102222.00;;;;5063991;28;20205;-76
2023/04/30 01:58:03;;;;;;;6.88;4.85;;;;;13.30;102219.00;;;;5049188;28;20197;-76
2023/04/30 02:00:32;;;;;;;5.72;4.45;;;;;13.30;102221.00;;;;5064289;28;20199;-76
2023/04/30 02:02:59;;;;;;;6.05;4.95;;;;;13.30;102220.00;;;;5056818;28;20208;-76
2023/04/30 02:05:26;;;;;;;7.25;5.00;;;;;13.30;102213.00;;;;5048600;28;20260;-76
2023/04/30 02:07:54;;;;;;;6.40;5.28;;;;;13.30;102220.00;;;;5047879;28;20681;-76
2023/04/30 02:10:23;;;;;;;6.32;4.40;;;;;13.20;102225.00;;;;5048446;28;20199;-77
2023/04/30 02:12:51;;;;;;;8.07;4.95;;;;;13.20;102222.00;;;;5047923;28;20196;-76
2023/04/30 02:15:18;;;;;;;6.07;4.53;;;;;13.20;102222.00;;;;5054101;28;20576;-76
2023/04/30 02:17:47;;;;;;;6.15;4.53;;;;;13.10;102219.00;;;;5059343;28;20226;-76
2023/04/30 02:20:14;;;;;;;7.00;4.47;;;;;13.10;102218.00;;;;5055020;28;20203;-76
2023/04/30 02:22:41;;;;;;;7.57;4.90;;;;;13.10;102216.00;;;;5052724;28;20723;-76
2023/04/30 02:25:11;;;;;;;7.18;4.90;;;;;13.10;102212.00;;;;5063752;28;20198;-76
2023/04/30 02:27:38;;;;;;;7.00;4.72;;;;;13.10;102223.00;;;;5065691;28;20245;-76
2023/04/30 02:30:07;;;;;;;7.03;4.82;;;;;13.10;102217.00;;;;5052973;28;20575;-76
2023/04/30 02:32:34;;;;;;;6.10;4.50;;;;;13.00;102218.00;;;;5050910;28;20242;-76
2023/04/30 02:35:03;;;;;;;6.95;4.50;;;;;13.00;102216.00;;;;5056741;28;20217;-76
2023/04/30 02:37:31;;;;;;;8.23;4.07;;;;;13.00;102213.00;;;;5061027;28;20199;-76
2023/04/30 02:39:58;;;;;;;5.80;4.72;;;;;13.00;102213.00;;;;5054704;28;20194;-76
2023/04/30 02:42:25;;;;;;;7.32;4.60;;;;;13.00;102217.00;;;;5069806;28;20249;-75
2023/04/30 02:44:53;;;;;;;5.55;4.55;;;;;13.00;102212.00;;;;5059450;28;20573;-76
2023/04/30 02:47:20;;;;;;;8.82;5.10;;;;;13.00;102211.00;;;;5070306;28;20536;-76
2023/04/30 02:49:47;;;;;;;7.10;4.70;;;;;12.90;102200.00;;;;5054677;28;20198;-76
2023/04/30 02:52:16;;;;;;;6.55;4.55;;;;;12.90;102194.00;;;;5051288;28;20203;-76
2023/04/30 02:54:43;;;;;;;6.55;4.65;;;;;12.90;102200.00;;;;5050505;28;20211;-76
2023/04/30 02:57:10;;;;;;;6.13;4.97;;;;;12.90;102200.00;;;;5054003;28;20545;-76
2023/04/30 02:59:37;;;;;;;8.82;4.55;;;;;12.90;102205.00;;;;5066082;28;20239;-76
2023/04/30 03:02:05;;;;;;;5.68;4.18;;;;;12.90;102202.00;;;;5064649;28;20234;-76
2023/04/30 03:04:32;;;;;;;6.10;4.35;;;;;12.90;102203.00;;;;5070765;28;20225;-76
2023/04/30 03:07:00;;;;;;;6.22;3.78;;;;;12.90;102202.00;;;;5066908;28;20576;-76
2023/04/30 03:09:29;;;;;;;5.03;3.58;;;;;12.90;102196.00;;;;5057752;28;20579;-76
2023/04/30 03:11:57;;;;;;;5.25;3.72;;;;;12.90;102195.00;;;;5050616;28;20723;-76
2023/04/30 03:14:24;;;;;;;4.88;3.92;;;;;12.90;102201.00;;;;5057610;28;20200;-76
2023/04/30 03:16:51;;;;;;;4.13;3.08;;;;;13.00;102203.00;;;;5063270;28;20242;-76
2023/04/30 03:19:23;;;;;;;4.95;4.00;;;;;13.00;102195.00;;;;5063240;28;20203;-76
2023/04/30 03:21:51;;;;;;;5.75;3.65;;;;;13.00;102199.00;;;;5056844;28;20222;-77
2023/04/30 03:24:18;;;;;;;4.90;3.70;;;;;13.00;102202.00;;;;5053653;28;20199;-76
2023/04/30 03:26:47;;;;;;;6.40;3.92;;;;;13.00;102199.00;;;;5062664;28;20654;-76
2023/04/30 03:29:14;;;;;;;4.63;3.90;;;;;13.00;102206.00;;;;5053025;28;20199;-76
2023/04/30 03:31:41;;;;;;;6.28;4.03;;;;;13.00;102200.00;;;;5068974;28;20202;-76
2023/04/30 03:34:09;;;;;;;5.13;3.90;;;;;13.10;102194.00;;;;5057989;28;20234;-76
2023/04/30 03:36:36;;;;;;;5.47;4.47;;;;;13.10;102189.00;;;;5068083;28;20203;-76
2023/04/30 03:39:04;;;;;;;4.75;3.65;;;;;13.10;102190.00;;;;5060170;28;20776;-76
2023/04/30 03:41:32;;;;;;;4.82;3.88;;;;;13.10;102191.00;;;;5050478;28;20228;-76
2023/04/30 03:44:00;;;;;;;5.70;3.90;;;;;13.10;102189.00;;;;5054531;28;20653;-76
2023/04/30 03:46:28;;;;;;;5.63;4.35;;;;;13.10;102186.00;;;;5062109;28;20203;-76
2023/04/30 03:48:55;;;;;;;5.07;4.15;;;;;13.10;102178.00;;;;5063421;28;20203;-76
2023/04/30 03:51:22;;;;;;;5.72;4.57;;;;;13.10;102193.00;;;;5062518;28;20198;-76
2023/04/30 03:53:49;;;;;;;6.35;4.05;;;;;13.10;102191.00;;;;5053748;28;20219;-76
2023/04/30 03:56:17;;;;;;;4.88;3.72;;;;;13.10;102190.00;;;;5050669;28;20200;-76
2023/04/30 03:58:44;;;;;;;7.32;4.38;;;;;13.10;102197.00;;;;5050338;28;20195;-77
2023/04/30 04:01:13;;;;;;;5.00;3.92;;;;;13.10;102191.00;;;;5062211;28;20203;-76
2023/04/30 04:03:40;;;;;;;7.68;4.03;;;;;13.20;102190.00;;;;5050501;28;20588;-76
2023/04/30 04:06:07;;;;;;;4.95;4.15;;;;;13.20;102185.00;;;;5055517;28;20196;-76
2023/04/30 04:08:35;;;;;;;6.90;3.97;;;;;13.20;102183.00;;;;5049938;28;20203;-76
2023/04/30 04:11:02;;;;;;;5.80;4.47;;;;;13.20;102182.00;;;;5054293;28;20207;-77
2023/04/30 04:13:30;;;;;;;4.65;3.63;;;;;13.20;102182.00;;;;5049676;28;20195;-76
2023/04/30 04:15:57;;;;;;;5.65;3.88;;;;;13.20;102184.00;;;;5068331;28;20199;-76
2023/04/30 04:18:25;;;;;;;4.95;3.95;;;;;13.20;102189.00;;;;5053086;28;20192;-77
2023/04/30 04:20:53;;;;;;;5.80;4.10;;;;;13.20;102194.00;;;;5064109;28;20211;-76
2023/04/30 04:23:20;;;;;;;5.18;3.65;;;;;13.20;102191.00;;;;5063703;28;20218;-77
2023/04/30 04:25:48;;;;;;;8.23;3.67;;;;;13.20;102193.00;;;;5051636;28;20188;-77
2023/04/30 04:28:15;;;;;;;4.45;3.15;;;;;13.20;102197.00;;;;5057535;28;20683;-76
2023/04/30 04:30:43;;;;;;;4.07;3.58;;;;;13.20;102195.00;;;;5057699;28;20204;-76
2023/04/30 04:33:10;;;;;;;5.43;3.30;;;;;13.20;102194.00;;;;5054658;28;20234;-76
2023/04/30 04:35:39;;;;;;;6.43;3.75;;;;;13.20;102196.00;;;;5065545;28;20199;-76
2023/04/30 04:38:07;;;;;;;5.05;3.38;;;;;13.20;102197.00;;;;5067319;28;20669;-76
2023/04/30 04:40:36;;;;;;;5.10;3.70;;;;;13.20;102198.00;;;;5054639;28;20617;-77
2023/04/30 04:43:03;;;;;;;5.57;3.90;;;;;13.20;102200.00;;;;5049139;28;20745;-76
2023/04/30 04:45:32;;;;;;;3.67;3.28;;;;;13.30;102200.00;;;;5049725;28;20257;-76
2023/04/30 04:47:59;;;;;;;4.45;3.10;;;;;13.30;102203.00;;;;5055087;28;20210;-76
2023/04/30 04:50:26;;;;;;;4.80;3.65;;;;;13.30;102210.00;;;;5057853;28;20203;-77
2023/04/30 04:52:55;;;;;;;4.20;2.90;;;;;13.30;102201.00;;;;5049897;28;20637;-76
2023/04/30 04:55:23;;;;;;;4.05;3.25;;;;;13.40;102191.00;;;;5067844;28;20206;-77
2023/04/30 04:57:50;;;;;;;5.45;3.85;;;;;13.40;102192.00;;;;5052699;28;20196;-77
2023/04/30 05:00:17;;;;;;;4.10;3.38;;;;;13.40;102193.00;;;;5050689;28;20273;-76
2023/04/30 05:02:45;;;;;;;4.78;3.75;;;;;13.50;102189.00;;;;5067400;28;20222;-76
2023/04/30 05:05:12;;;;;;;4.18;3.33;;;;;13.50;102186.00;;;;5060264;28;20203;-76
2023/04/30 05:07:40;;;;;;;4.90;3.67;;;;;13.50;102189.00;;;;5061469;28;20677;-77
2023/04/30 05:10:09;;;;;;;5.72;3.63;;;;;13.50;102190.00;;;;5058381;28;20191;-76
2023/04/30 05:12:37;;;;;;;5.25;3.95;;;;;13.60;102191.00;;;;5067031;28;20278;-76
2023/04/30 05:15:05;;;;;;;4.38;3.40;;;;;13.70;102201.00;;;;5052629;28;20199;-76
2023/04/30 05:17:32;;;;;;;5.40;3.55;;;;;13.70;102201.00;;;;5059953;28;20200;-76
2023/04/30 05:20:00;;;;;;;5.22;3.30;;;;;13.70;102205.00;;;;5049967;28;20203;-76
2023/04/30 05:22:27;;;;;;;4.68;3.47;;;;;13.80;102199.00;;;;5047730;28;20216;-76
2023/04/30 05:24:54;;;;;;;5.03;3.28;;;;;13.80;102200.00;;;;5054088;28;20207;-76
2023/04/30 05:27:23;;;;;;;6.38;3.40;;;;;13.90;102200.00;;;;5052097;28;20246;-76
2023/04/30 05:29:50;;;;;;;4.90;3.65;;;;;13.90;102203.00;;;;5059931;28;20191;-76
2023/04/30 05:32:17;;;;;;;4.03;2.75;;;;;14.00;102202.00;;;;5049047;28;20223;-76
2023/04/30 05:34:45;;;;;;;5.07;3.22;;;;;14.00;102207.00;;;;5056744;28;20198;-76
2023/04/30 05:37:13;;;;;;;5.20;3.03;;;;;14.10;102198.00;;;;5058870;28;20203;-76
2023/04/30 05:39:40;;;;;;;4.88;2.60;;;;;14.10;102194.00;;;;5059201;28;20248;-76
2023/04/30 05:42:07;;;;;;;4.32;3.10;;;;;14.20;102191.00;;;;5050010;28;20231;-76
2023/04/30 05:44:36;;;;;;;5.13;3.35;;;;;14.30;102202.00;;;;5058381;28;20194;-76
2023/04/30 05:47:03;;;;;;;3.60;2.83;;;;;14.30;102210.00;;;;5050953;28;20204;-76
2023/04/30 05:49:31;;;;;;;4.47;2.72;;;;;14.40;102210.00;;;;5052064;28;20735;-77
2023/04/30 05:51:58;;;;;;;6.63;3.42;;;;;14.40;102214.00;;;;5051812;28;20206;-76
2023/04/30 05:54:25;;;;;;;5.20;2.63;;;;;14.50;102216.00;;;;5054088;28;20190;-76
2023/04/30 05:56:52;;;;;;;3.75;2.97;;;;;14.50;102218.00;;;;5049303;28;20191;-77
2023/04/30 05:59:20;;;;;;;4.65;3.20;;;;;14.60;102217.00;;;;5048583;28;20211;-77
2023/04/30 06:01:49;;;;;;;3.90;3.50;;;;;14.70;102216.00;;;;5059045;28;20195;-75
2023/04/30 06:04:16;;;;;;;6.30;3.60;;;;;14.70;102223.00;;;;5061069;28;20211;-76
2023/04/30 06:06:44;;;;;;;6.20;3.35;;;;;14.80;102225.00;;;;5047922;28;20573;-76
2023/04/30 06:09:14;;;;;;;4.63;3.50;;;;;14.80;102220.00;;;;5054440;28;20221;-76
2023/04/30 06:11:44;;;;;;;4.43;3.35;;;;;14.90;102222.00;;;;5058975;28;20191;-76
2023/04/30 06:14:11;;;;;;;4.97;3.03;;;;;15.00;102226.00;;;;5054091;28;20582;-76
2023/04/30 06:16:39;;;;;;;4.25;3.13;;;;;15.00;102225.00;;;;5055821;28;20203;-77
2023/04/30 06:19:08;;;;;;;4.97;3.22;;;;;15.10;102233.00;;;;5055423;28;20245;-76
2023/04/30 06:21:35;;;;;;;3.60;3.00;;;;;15.20;102229.00;;;;5052420;28;20210;-77
2023/04/30 06:24:03;;;;;;;5.85;3.00;;;;;15.30;102224.00;;;;5052075;28;20308;-77
2023/04/30 06:26:30;;;;;;;5.05;3.15;;;;;15.30;102230.00;;;;5054781;28;20198;-77
2023/04/30 06:28:58;;;;;;;4.85;3.25;;;;;15.40;102221.00;;;;5055570;28;20203;-75
2023/04/30 06:31:25;;;;;;;4.53;2.78;;;;;15.50;102215.00;;;;5056522;28;20275;-75
2023/04/30 06:33:55;;;;;;;10.13;3.60;;;;;15.50;102219.00;;;;5053289;28;20596;-76
2023/04/30 06:36:23;;;;;;;3.72;2.72;;;;;15.60;102221.00;;;;5057023;28;20199;-75
2023/04/30 06:38:51;;;;;;;4.15;3.35;;;;;15.70;102220.00;;;;5054611;28;20207;-76
2023/04/30 06:41:18;;;;;;;4.22;2.97;;;;;15.80;102227.00;;;;5058675;28;20203;-75
2023/04/30 06:43:46;;;;;;;3.53;2.90;;;;;15.90;102227.00;;;;5057312;28;20230;-76
2023/04/30 06:46:14;;;;;;;4.65;2.85;;;;;15.90;102230.00;;;;5061132;28;20198;-76
2023/04/30 06:48:52;;;;;;;3.78;3.40;;;;;15.90;102231.00;;;;5054174;28;20257;-76
2023/04/30 06:51:20;;;;;;;4.60;3.28;;;;;16.10;102230.00;;;;5057921;28;20664;-77
2023/04/30 06:53:49;;;;;;;4.45;3.17;;;;;16.20;102237.00;;;;5047488;28;20226;-77
2023/04/30 06:56:18;;;;;;;5.60;3.63;;;;;16.30;102242.00;;;;5058765;28;20203;-76
2023/04/30 06:58:46;;;;;;;3.97;3.17;;;;;16.40;102239.00;;;;5050603;28;20627;-77
2023/04/30 07:01:14;;;;;;;4.40;3.00;;;;;16.50;102241.00;;;;5061660;28;20199;-77
2023/04/30 07:03:41;;;;;;;5.00;3.00;;;;;16.60;102247.00;;;;5051545;28;20238;-76
2023/04/30 07:06:08;;;;;;;4.80;3.50;;;;;16.60;102241.00;;;;5058415;28;20203;-75
2023/04/30 07:08:37;;;;;;;4.57;3.97;;;;;16.70;102248.00;;;;5052644;28;20214;-76
2023/04/30 07:11:06;;;;;;;5.85;3.70;;;;;16.80;102250.00;;;;5054628;28;20568;-76
2023/04/30 07:13:33;;;;;;;4.82;3.30;;;;;16.90;102254.00;;;;5064990;28;20206;-76
2023/04/30 07:16:00;;;;;;;5.53;3.80;;;;;17.00;102256.00;;;;5060548;28;20203;-76
2023/04/30 07:18:30;;;;;;;5.20;3.78;;;;;17.10;102258.00;;;;5055925;28;20200;-77
2023/04/30 07:20:59;;;;;;;5.18;3.88;;;;;17.10;102253.00;;;;5053268;28;20198;-77
2023/04/30 07:23:27;;;;;;;5.45;3.45;;;;;17.20;102259.00;;;;5063247;28;20214;-78
2023/04/30 07:25:54;;;;;;;3.60;3.15;;;;;17.30;102257.00;;;;5062421;28;20238;-77
2023/04/30 07:28:24;;;;;;;3.88;3.20;;;;;17.30;102253.00;;;;5058261;28;20211;-77
2023/04/30 07:30:54;;;;;;;3.88;3.47;;;;;17.40;102252.00;;;;5061326;28;20206;-77
2023/04/30 07:33:23;;;;;;;4.85;3.33;;;;;17.50;102252.00;;;;5051995;28;20606;-78
2023/04/30 07:35:50;;;;;;;4.72;3.88;;;;;17.60;102246.00;;;;5059677;28;20265;-77
2023/04/30 07:38:18;;;;;;;6.13;3.67;;;;;17.70;102251.00;;;;5058707;28;20199;-77
2023/04/30 07:40:45;;;;;;;4.93;3.33;;;;;17.70;102241.00;;;;5064716;28;20601;-77
2023/04/30 07:43:12;;;;;;;3.63;3.33;;;;;17.80;102246.00;;;;5050242;28;20270;-76
2023/04/30 07:45:41;;;;;;;3.40;3.03;;;;;17.80;102241.00;;;;5050893;28;20200;-77
2023/04/30 07:48:08;;;;;;;4.70;3.08;;;;;17.90;102244.00;;;;5055541;28;20220;-77
2023/04/30 07:50:36;;;;;;;4.68;3.15;;;;;18.00;102236.00;;;;5066522;28;20199;-76
2023/04/30 07:53:06;;;;;;;4.82;3.28;;;;;18.10;102236.00;;;;5067973;28;20206;-76
2023/04/30 07:55:33;;;;;;;13.48;3.33;;;;;18.20;102237.00;;;;5062542;28;20207;-76
2023/04/30 07:58:01;;;;;;;4.40;3.65;;;;;18.20;102241.00;;;;5057794;28;20206;-77
2023/04/30 08:00:29;;;;;;;3.38;2.97;;;;;18.40;102236.00;;;;5053979;28;20253;-77
2023/04/30 08:02:59;;;;;;;5.28;3.13;;;;;18.40;102241.00;;;;5051281;28;20281;-77
2023/04/30 08:05:26;;;;;;;3.38;2.80;;;;;18.60;102233.00;;;;5050942;28;20254;-78
2023/04/30 08:07:54;;;;;;;2.97;2.60;;;;;18.60;102243.00;;;;5049467;28;20211;-78
2023/04/30 08:10:21;;;;;;;4.65;2.47;;;;;18.70;102244.00;;;;5058953;28;20324;-76
2023/04/30 08:12:48;;;;;;;3.90;2.75;;;;;18.80;102243.00;;;;5062454;28;20199;-76
2023/04/30 08:15:16;;;;;;;2.80;2.47;;;;;18.90;102249.00;;;;5066143;28;20210;-76
2023/04/30 08:17:43;;;;;;;3.60;3.00;;;;;19.00;102251.00;;;;5052150;28;20203;-77
2023/04/30 08:20:12;;;;;;;3.35;2.33;;;;;19.10;102251.00;;;;5052840;28;20198;-76
2023/04/30 08:22:40;;;;;;;3.55;2.90;;;;;19.20;102245.00;;;;5052404;28;20246;-76
2023/04/30 08:25:10;;;;;;;3.40;2.88;;;;;19.30;102245.00;;;;5059288;28;20256;-76
2023/04/30 08:27:37;;;;;;;4.97;2.75;;;;;19.40;102245.00;;;;5061308;28;20218;-76
2023/04/30 08:30:06;;;;;;;7.13;3.10;;;;;19.50;102245.00;;;;5054727;28;20578;-76
2023/04/30 08:32:35;;;;;;;5.88;2.75;;;;;19.60;102249.00;;;;5049178;28;20223;-76
2023/04/30 08:35:03;;;;;;;5.32;3.13;;;;;19.70;102254.00;;;;5059189;28;20508;-77
2023/04/30 08:37:31;;;;;;;3.08;2.53;;;;;19.80;102245.00;;;;5055025;28;20238;-75
2023/04/30 08:39:59;;;;;;;4.78;3.00;;;;;19.90;102249.00;;;;5050508;28;20229;-76
2023/04/30 08:42:30;;;;;;;3.38;3.08;;;;;19.90;102252.00;;;;5049525;28;20218;-76
2023/04/30 08:44:58;;;;;;;4.38;3.20;;;;;20.00;102247.00;;;;5059485;28;20199;-76
2023/04/30 08:47:26;;;;;;;4.43;2.83;;;;;20.10;102240.00;;;;5048427;28;20199;-76
2023/04/30 08:49:54;;;;;;;3.28;2.78;;;;;20.20;102241.00;;;;5049189;28;20198;-76
2023/04/30 08:52:22;;;;;;;3.80;2.45;;;;;20.30;102245.00;;;;5048974;28;20604;-76
2023/04/30 08:54:53;;;;;;;3.33;2.50;;;;;20.40;102253.00;;;;5058707;28;20203;-76
2023/04/30 08:57:20;;;;;;;2.58;2.38;;;;;20.50;102247.00;;;;5051914;28;20202;-76
2023/04/30 08:59:47;;;;;;;3.53;2.53;;;;;20.60;102241.00;;;;5051072;28;20258;-76
2023/04/30 09:02:14;;;;;;;2.80;2.50;;;;;20.60;102248.00;;;;5059661;28;20210;-76
2023/04/30 09:04:42;;;;;;;2.70;2.33;;;;;20.70;102245.00;;;;5052299;28;20977;-76
2023/04/30 09:07:12;;;;;;;2.88;2.25;;;;;20.80;102240.00;;;;5055292;28;20230;-76
2023/04/30 09:09:40;;;;;;;4.38;2.13;;;;;20.90;102232.00;;;;5054323;28;20196;-76
2023/04/30 09:12:16;;;;;;;3.05;2.08;;;;;21.00;102240.00;;;;5061083;28;20199;-77
2023/04/30 09:14:59;;;;;;;2.75;1.92;;;;;21.00;102231.00;;;;5054752;28;20200;-77
2023/04/30 09:17:27;;;;;;;3.13;2.00;;;;;21.20;102235.00;;;;5063068;28;20230;-77
2023/04/30 09:19:54;;;;;;;3.38;2.22;;;;;21.30;102243.00;;;;5057853;28;20196;-78
2023/04/30 09:22:23;;;;;;;2.70;2.10;;;;;21.40;102236.00;;;;5048943;28;20199;-78
2023/04/30 09:24:52;;;;;;;2.50;1.92;;;;;21.50;102237.00;;;;5048893;28;20219;-78
2023/04/30 09:27:23;;;;;;;2.17;1.95;;;;;21.60;102239.00;;;;5052017;28;20219;-77
2023/04/30 09:29:50;;;;;;;2.70;2.30;;;;;21.70;102239.00;;;;5055065;28;20204;-76
2023/04/30 09:32:18;;;;;;;3.03;1.90;;;;;21.80;102232.00;;;;5065212;28;20288;-77
2023/04/30 09:34:45;;;;;;;2.75;2.42;;;;;21.90;102232.00;;;;5055559;28;20196;-76
2023/04/30 09:37:12;;;;;;;3.28;1.80;;;;;22.00;102231.00;;;;5056927;28;20206;-79
2023/04/30 09:39:50;;;;;;;4.85;1.92;;;;;22.00;102229.00;;;;5067047;28;20729;-76
2023/04/30 09:42:18;;;;;;;2.35;1.77;;;;;22.10;102235.00;;;;5067330;28;20282;-77
2023/04/30 09:44:48;;;;;;;1.75;1.48;;;;;22.20;102233.00;;;;5055858;28;20238;-77
2023/04/30 09:47:17;;;;;;;3.70;2.00;;;;;22.30;102228.00;;;;5049124;28;20214;-77
2023/04/30 09:49:50;;;;;;;2.28;2.08;;;;;22.40;102227.00;;;;5046906;28;20610;-77
2023/04/30 09:52:18;;;;;;;2.50;2.30;;;;;22.50;102227.00;;;;5048752;28;20192;-76
2023/04/30 09:54:46;;;;;;;2.10;1.58;;;;;22.60;102224.00;;;;5047207;28;20677;-77
2023/04/30 09:57:15;;;;;;;3.05;1.73;;;;;22.70;102218.00;;;;5056287;28;20213;-77
2023/04/30 09:59:46;;;;;;;2.17;1.85;;;;;22.70;102218.00;;;;5052497;28;20207;-77
2023/04/30 10:02:15;;;;;;;1.92;1.73;;;;;22.80;102215.00;;;;5067169;28;20195;-77
2023/04/30 10:04:44;;;;;;;2.15;1.52;;;;;22.90;102209.00;;;;5068302;28;20783;-76
2023/04/30 10:07:15;;;;;;;1.67;1.58;;;;;23.00;102206.00;;;;5067850;28;20202;-77
2023/04/30 10:09:49;;;;;;;2.50;1.58;;;;;23.00;102207.00;;;;5068550;28;20211;-76
2023/04/30 10:12:20;;;;;;;4.47;1.73;;;;;23.10;102212.00;;;;5059406;28;20680;-77
2023/04/30 10:14:55;;;;;;;2.85;1.80;;;;;23.10;102204.00;;;;5068622;28;20213;-76
2023/04/30 10:17:27;;;;;;;3.05;1.95;;;;;23.30;102199.00;;;;5067951;28;20203;-77
2023/04/30 10:20:01;;;;;;;1.77;1.58;;;;;23.30;102203.00;;;;5067064;28;20939;-77
2023/04/30 10:22:30;;;;;;;2.10;1.60;;;;;23.40;102197.00;;;;5067387;28;20224;-77
2023/04/30 10:24:58;;;;;;;2.40;1.55;;;;;23.50;102193.00;;;;5067895;28;20223;-77
2023/04/30 10:27:25;;;;;;;2.35;1.55;;;;;23.50;102192.00;;;;5067014;28;20222;-77
2023/04/30 10:29:54;;;;;;;2.65;1.55;;;;;23.60;102191.00;;;;5068095;28;20198;-77
2023/04/30 10:32:23;;;;;;;1.35;1.25;;;;;23.70;102186.00;;;;5067914;28;20565;-77
2023/04/30 10:34:58;;;;;;;2.45;1.83;;;;;23.70;102197.00;;;;5067811;28;20195;-77
2023/04/30 10:37:31;;;;;;;2.55;1.50;;;;;23.80;102194.00;;;;5060497;28;20198;-77
2023/04/30 10:40:00;;;;;;;2.03;1.50;;;;;23.90;102191.00;;;;5070753;28;20206;-77
2023/04/30 10:42:28;;;;;;;2.40;1.63;;;;;23.90;102186.00;;;;5071008;28;20191;-77
2023/04/30 10:44:56;;;;;;;1.80;1.35;;;;;24.00;102190.00;;;;5071833;28;20316;-77
2023/04/30 10:47:29;;;;;;;1.08;0.98;;;;;24.00;102187.00;;;;5071196;28;20645;-77
2023/04/30 10:50:04;;;;;;;1.55;1.23;;;;;24.00;102182.00;;;;5071235;28;20227;-77
2023/04/30 10:52:31;;;;;;;2.50;1.52;;;;;24.10;102183.00;;;;5071247;28;20202;-77
2023/04/30 10:54:58;;;;;;;2.42;1.40;;;;;24.10;102183.00;;;;5070728;28;20202;-77
2023/04/30 10:57:30;;;;;;;2.33;1.55;;;;;24.10;102180.00;;;;5063691;28;20557;-77
2023/04/30 11:00:19;;;;;;;5.50;1.52;;;;;24.00;102173.00;;;;5053387;28;20203;-77
2023/04/30 11:02:48;;;;;;;2.88;1.60;;;;;24.20;102171.00;;;;5061130;28;20203;-77
2023/04/30 11:05:17;;;;;;;1.70;1.23;;;;;24.20;102164.00;;;;5070621;28;20223;-77
2023/04/30 11:07:51;;;;;;;1.92;1.30;;;;;24.20;102168.00;;;;5063062;28;20196;-77
2023/04/30 11:10:22;;;;;;;3.17;1.52;;;;;24.30;102161.00;;;;5051579;28;20222;-77
2023/04/30 11:12:51;;;;;;;1.80;1.30;;;;;24.30;102154.00;;;;5050861;28;20196;-77
2023/04/30 11:15:24;;;;;;;2.05;1.20;;;;;24.30;102145.00;;;;5050801;28;20196;-77
2023/04/30 11:17:56;;;;;;;1.80;1.40;;;;;24.40;102149.00;;;;5054354;28;20218;-77
2023/04/30 11:20:25;;;;;;;2.80;1.77;;;;;24.50;102145.00;;;;5055493;28;20196;-77
2023/04/30 11:23:11;;;;;;;2.53;1.20;;;;;24.40;102146.00;;;;5050143;28;20261;-77
2023/04/30 11:25:43;;;;;;;1.25;1.15;;;;;24.50;102141.00;;;;5051122;28;20235;-77
2023/04/30 11:28:16;;;;;;;1.98;1.40;;;;;24.50;102134.00;;;;5051169;28;20223;-77
2023/04/30 11:30:52;;;;;;;1.17;1.08;;;;;24.50;102132.00;;;;5059436;28;20210;-77
2023/04/30 11:33:19;;;;;;;1.58;1.13;;;;;24.60;102141.00;;;;5071046;28;20610;-77
2023/04/30 11:35:48;;;;;;;1.35;1.17;;;;;24.60;102139.00;;;;5070631;28;20199;-77
2023/04/30 11:38:17;;;;;;;1.30;1.20;;;;;24.60;102127.00;;;;5070870;28;20209;-77
2023/04/30 11:40:45;;;;;;;2.45;1.42;;;;;24.70;102125.00;;;;5070528;28;20202;-76
2023/04/30 11:43:22;;;;;;;1.55;1.02;;;;;24.60;102129.00;;;;5058673;28;20913;-76
2023/04/30 11:46:01;;;;;;;3.03;1.50;;;;;24.60;102119.00;;;;5051752;28;20273;-77
2023/04/30 11:48:33;;;;;;;1.55;1.20;;;;;24.70;102119.00;;;;5050166;28;20199;-77
2023/04/30 11:51:02;;;;;;;1.75;1.40;;;;;24.80;102107.00;;;;5050309;28;20199;-77
2023/04/30 11:53:30;;;;;;;2.60;1.42;;;;;24.80;102111.00;;;;5050850;28;20200;-77
2023/04/30 11:56:01;;;;;;;1.73;1.30;;;;;24.90;102115.00;;;;5049696;28;20581;-77
2023/04/30 11:58:33;;;;;;;1.90;1.58;;;;;24.90;102110.00;;;;5069842;28;20206;-77
2023/04/30 12:01:02;;;;;;;1.95;1.15;;;;;25.00;102105.00;;;;5070371;28;20630;-77
2023/04/30 12:03:29;;;;;;;2.80;1.23;;;;;25.10;102110.00;;;;5070064;28;20206;-77
2023/04/30 12:05:57;;;;;;;2.95;1.65;;;;;25.10;102108.00;;;;5062601;28;20231;-77
2023/04/30 12:08:24;;;;;;;1.63;1.40;;;;;25.10;102094.00;;;;5050089;28;20196;-77
2023/04/30 12:10:51;;;;;;;1.98;1.13;;;;;25.20;102095.00;;;;5054861;28;20191;-77
2023/04/30 12:13:19;;;;;;;3.10;1.20;;;;;25.20;102100.00;;;;5056373;28;20211;-77
2023/04/30 12:15:59;;;;;;;1.30;1.20;;;;;25.10;102097.00;;;;5049851;28;20204;-77
2023/04/30 12:18:27;;;;;;;2.00;1.30;;;;;25.20;102098.00;;;;5050020;28;20204;-77